Time;durP1;ratioP1;P1;durP2;ratioP2;P2;SDS_P1;SDS_P2;PMS_P1;PMS_P2;Temp;Humidity;BMP_temperature;BMP_pressure;BME280_temperature;BME280_humidity;BME280_pressure;Samples;Min_cycle;Max_cycle;Signal;HPM_P1;HPM_P2
2022/01/17 00:00:15;;;;;;;75.15;42.90;;;;;;;2.15;87.24;102048.25;4955336;29;20564;-79
2022/01/17 00:02:41;;;;;;;77.57;43.30;;;;;;;2.16;87.07;102049.09;4956215;29;20398;-79
2022/01/17 00:05:08;;;;;;;77.85;44.13;;;;;;;2.11;87.40;102060.22;4954654;29;20420;-79
2022/01/17 00:07:34;;;;;;;81.82;44.85;;;;;;;2.10;87.28;102077.28;4955277;29;20485;-79
2022/01/17 00:09:59;;;;;;;80.78;44.70;;;;;;;2.20;86.95;102072.72;4955923;29;20453;-79
2022/01/17 00:12:26;;;;;;;78.90;42.97;;;;;;;2.18;86.92;102072.00;4938645;29;20405;-79
2022/01/17 00:14:54;;;;;;;73.93;43.25;;;;;;;2.12;87.16;102067.25;4955847;29;20409;-79
2022/01/17 00:19:46;;;;;;;70.53;39.20;;;;;;;2.08;87.34;102073.91;4954624;29;20484;-78
2022/01/17 00:22:13;;;;;;;68.53;36.97;;;;;;;2.11;86.80;102078.94;4955395;29;20967;-79
2022/01/17 00:24:39;;;;;;;64.25;34.95;;;;;;;2.04;86.96;102076.03;4938623;29;20490;-79
2022/01/17 00:27:05;;;;;;;66.63;36.30;;;;;;;2.02;86.86;102063.81;4955663;29;20496;-79
2022/01/17 00:29:30;;;;;;;61.27;33.53;;;;;;;1.98;86.77;102044.56;4955396;29;20442;-79
2022/01/17 00:31:56;;;;;;;61.13;33.37;;;;;;;2.12;85.60;102050.38;4953552;29;20414;-80
2022/01/17 00:34:22;;;;;;;62.03;32.95;;;;;;;2.03;85.93;102066.34;4953284;28;20416;-78
2022/01/17 00:36:48;;;;;;;61.38;32.83;;;;;;;2.04;85.79;102075.22;4938489;29;20481;-79
2022/01/17 00:39:16;;;;;;;59.70;31.97;;;;;;;1.95;86.05;102078.75;4954973;29;20398;-79
2022/01/17 00:41:41;;;;;;;55.55;32.60;;;;;;;1.93;86.54;102070.91;4954783;29;20426;-79
2022/01/17 00:44:06;;;;;;;57.83;32.10;;;;;;;1.98;86.11;102081.97;4955120;29;20481;-79
2022/01/17 00:46:32;;;;;;;52.03;30.00;;;;;;;1.98;85.75;102078.47;4955236;29;20505;-79
2022/01/17 00:48:58;;;;;;;51.50;29.08;;;;;;;1.99;85.55;102082.81;4953962;29;20944;-80
2022/01/17 00:51:24;;;;;;;52.45;30.23;;;;;;;2.00;85.86;102080.03;4954765;29;20773;-79
2022/01/17 00:53:49;;;;;;;53.10;30.38;;;;;;;2.05;85.58;102076.88;4954275;29;20496;-79
2022/01/17 00:56:15;;;;;;;57.57;31.60;;;;;;;2.09;85.39;102073.75;4954820;28;20477;-79
2022/01/17 00:58:41;;;;;;;59.20;31.93;;;;;;;2.04;85.70;102075.22;4955040;29;20402;-80
2022/01/17 01:01:06;;;;;;;56.03;31.35;;;;;;;2.00;85.64;102080.03;4954990;29;20758;-79
2022/01/17 01:03:32;;;;;;;64.97;35.70;;;;;;;2.05;85.97;102068.84;4953061;29;20490;-79
2022/01/17 01:05:57;;;;;;;63.57;35.33;;;;;;;2.06;85.70;102070.53;4936910;29;20493;-79
2022/01/17 01:08:22;;;;;;;70.50;36.53;;;;;;;2.00;85.88;102063.97;4954677;29;20402;-79
2022/01/17 01:10:48;;;;;;;65.28;36.33;;;;;;;2.13;85.78;102068.97;4954458;29;21174;-79
2022/01/17 01:13:13;;;;;;;69.27;38.77;;;;;;;2.21;85.38;102069.03;4954879;29;20398;-79
2022/01/17 01:18:14;;;;;;;69.37;37.60;;;;;;;2.23;85.58;102076.91;4950665;29;20909;-79
2022/01/17 01:28:39;;;;;;;65.43;38.47;;;;;;;2.15;85.88;102085.69;4954810;29;20393;-79
2022/01/17 01:31:11;;;;;;;66.93;37.63;;;;;;;2.11;86.10;102078.13;4951817;29;20425;-79
2022/01/17 01:33:40;;;;;;;67.20;38.35;;;;;;;2.12;86.25;102071.78;4954429;29;20753;-79
2022/01/17 01:36:12;;;;;;;65.25;37.47;;;;;;;2.07;86.53;102069.56;4954083;29;20410;-79
2022/01/17 01:38:39;;;;;;;67.50;36.85;;;;;;;2.15;85.62;102071.47;4954376;29;20402;-79
2022/01/17 01:41:05;;;;;;;62.40;37.43;;;;;;;2.05;85.67;102071.53;4953314;29;20428;-79
2022/01/17 01:43:30;;;;;;;66.87;37.27;;;;;;;2.13;85.47;102071.63;4946273;29;20488;-79
2022/01/17 01:45:59;;;;;;;58.70;35.00;;;;;;;2.05;85.73;102066.19;4951479;28;20512;-79
2022/01/17 01:48:25;;;;;;;55.08;33.85;;;;;;;2.11;84.97;102072.78;4953921;28;20816;-79
2022/01/17 01:50:51;;;;;;;54.38;33.25;;;;;;;2.04;85.43;102061.84;4953542;29;20410;-79
2022/01/17 01:53:16;;;;;;;56.50;32.85;;;;;;;2.00;85.62;102069.31;4953841;28;20739;-79
2022/01/17 01:55:41;;;;;;;54.95;32.30;;;;;;;2.05;85.15;102067.03;4953217;28;20484;-79
2022/01/17 01:58:09;;;;;;;52.37;32.03;;;;;;;2.12;84.42;102069.94;4953497;29;20416;-79
2022/01/17 02:00:34;;;;;;;56.58;32.83;;;;;;;2.14;84.36;102075.97;4934096;29;20429;-79
2022/01/17 02:03:00;;;;;;;56.40;32.85;;;;;;;2.18;84.16;102069.34;4951233;29;20422;-79
2022/01/17 02:05:25;;;;;;;55.70;30.73;;;;;;;2.08;84.75;102065.88;4947846;29;20813;-79
2022/01/17 02:07:51;;;;;;;50.67;30.33;;;;;;;2.13;84.56;102070.78;4936620;29;20440;-78
2022/01/17 02:10:16;;;;;;;47.70;29.77;;;;;;;2.16;84.07;102068.66;4953830;29;20398;-79
2022/01/17 02:12:42;;;;;;;49.37;30.20;;;;;;;2.17;83.92;102062.31;4953333;29;20414;-79
2022/01/17 02:15:12;;;;;;;50.30;30.37;;;;;;;2.15;84.23;102058.94;4951003;29;20413;-79
2022/01/17 02:17:44;;;;;;;51.42;30.63;;;;;;;2.12;84.55;102061.06;4952650;29;20424;-79
2022/01/17 02:20:16;;;;;;;51.45;32.20;;;;;;;2.13;84.49;102062.75;4953507;29;20417;-79
2022/01/17 02:22:41;;;;;;;49.00;31.27;;;;;;;2.12;84.83;102067.25;4953151;29;20538;-79
2022/01/17 02:25:07;;;;;;;52.47;31.53;;;;;;;2.15;84.53;102058.09;4952843;29;20902;-79
2022/01/17 02:27:32;;;;;;;50.60;31.38;;;;;;;2.18;84.08;102057.78;4953515;29;20406;-79
2022/01/17 02:29:58;;;;;;;50.93;30.23;;;;;;;2.10;84.51;102061.25;4933823;29;20448;-79
2022/01/17 02:32:23;;;;;;;47.17;28.27;;;;;;;2.09;85.21;102073.75;4953396;29;20429;-79
2022/01/17 02:34:48;;;;;;;49.10;29.75;;;;;;;2.11;84.58;102067.44;4953064;29;20476;-79
2022/01/17 02:37:15;;;;;;;48.53;29.10;;;;;;;2.04;85.15;102076.03;4953323;29;20394;-79
2022/01/17 02:39:40;;;;;;;46.33;28.85;;;;;;;2.04;84.78;102076.03;4953259;29;20900;-79
2022/01/17 02:42:06;;;;;;;42.97;26.47;;;;;;;2.01;85.38;102068.31;4950941;29;20421;-79
2022/01/17 02:44:32;;;;;;;44.88;28.05;;;;;;;1.98;85.28;102071.28;4937652;29;20406;-79
2022/01/17 02:47:00;;;;;;;42.03;27.05;;;;;;;2.02;85.19;102074.50;4953235;29;20421;-80
2022/01/17 02:49:26;;;;;;;44.85;28.02;;;;;;;2.05;85.48;102075.06;4953362;29;20870;-79
2022/01/17 02:51:51;;;;;;;45.45;27.83;;;;;;;2.03;85.02;102077.03;4952844;29;20409;-79
2022/01/17 02:54:17;;;;;;;47.27;28.20;;;;;;;2.05;85.06;102075.06;4935830;29;20416;-79
2022/01/17 02:56:43;;;;;;;46.15;26.85;;;;;;;2.05;84.97;102083.06;4952373;28;20508;-79
2022/01/17 02:59:08;;;;;;;41.13;25.33;;;;;;;2.08;85.15;102089.94;4957497;29;20826;-79
2022/01/17 03:01:34;;;;;;;43.60;26.23;;;;;;;2.03;84.83;102084.22;4957286;29;20429;-79
2022/01/17 03:03:59;;;;;;;43.20;26.57;;;;;;;2.09;84.84;102089.81;4956069;29;20878;-79
2022/01/17 03:06:26;;;;;;;43.80;26.83;;;;;;;2.11;84.68;102083.47;4957266;29;20440;-79
2022/01/17 03:08:52;;;;;;;40.88;25.98;;;;;;;2.13;84.61;102082.34;4957248;29;20460;-79
2022/01/17 03:11:24;;;;;;;40.85;24.85;;;;;;;2.19;84.50;102081.72;4954876;29;20739;-79
2022/01/17 03:13:51;;;;;;;37.67;25.58;;;;;;;2.29;84.04;102076.31;4957159;29;20747;-79
2022/01/17 03:16:18;;;;;;;39.55;24.48;;;;;;;2.24;83.99;102070.59;4956736;29;20822;-79
2022/01/17 03:18:47;;;;;;;38.72;24.27;;;;;;;2.21;84.23;102079.72;4939408;29;20486;-79
2022/01/17 03:21:15;;;;;;;47.97;28.02;;;;;;;2.23;84.36;102075.09;4956812;29;20772;-79
2022/01/17 03:23:42;;;;;;;50.35;29.38;;;;;;;2.11;84.92;102073.59;4956794;29;20436;-79
2022/01/17 03:26:07;;;;;;;54.17;30.42;;;;;;;2.13;84.53;102060.94;4955711;29;20442;-79
2022/01/17 03:28:34;;;;;;;43.13;25.92;;;;;;;2.06;84.65;102060.69;4956402;29;20881;-79
2022/01/17 03:31:00;;;;;;;46.28;27.25;;;;;;;2.04;85.01;102062.66;4956337;29;20427;-79
2022/01/17 03:33:26;;;;;;;48.22;28.05;;;;;;;2.07;84.74;102061.53;4956636;29;20394;-79
2022/01/17 03:35:52;;;;;;;51.08;29.23;;;;;;;2.09;85.03;102057.72;4956692;29;20413;-79
2022/01/17 03:38:20;;;;;;;51.63;29.15;;;;;;;2.09;84.92;102063.06;4956424;29;20394;-79
2022/01/17 03:40:47;;;;;;;49.97;29.10;;;;;;;2.08;84.63;102073.91;4953360;29;20426;-79
2022/01/17 03:43:13;;;;;;;43.13;27.15;;;;;;;2.22;84.41;102083.25;4948675;29;20503;-80
2022/01/17 03:45:39;;;;;;;44.47;26.77;;;;;;;2.28;83.80;102083.47;4956043;29;20433;-79
2022/01/17 03:48:05;;;;;;;44.35;25.83;;;;;;;2.21;83.96;102102.94;4956406;29;20480;-79
2022/01/17 03:50:31;;;;;;;50.27;27.80;;;;;;;2.24;84.02;102103.50;4956340;29;20978;-79
2022/01/17 03:52:56;;;;;;;52.42;28.60;;;;;;;2.24;83.82;102095.47;4956187;29;20825;-79
2022/01/17 03:55:22;;;;;;;50.22;27.98;;;;;;;2.18;84.33;102092.56;4954091;28;20433;-79
2022/01/17 03:57:48;;;;;;;51.78;28.02;;;;;;;2.14;84.20;102088.53;4956012;29;20423;-79
2022/01/17 04:00:18;;;;;;;36.80;23.40;;;;;;;2.26;83.62;102095.34;4956197;29;20425;-79
2022/01/17 04:02:43;;;;;;;52.13;27.80;;;;;;;2.39;83.23;102107.34;4956144;29;20885;-79
2022/01/17 04:05:09;;;;;;;46.17;26.40;;;;;;;2.32;83.52;102108.09;4956086;29;20408;-79
2022/01/17 04:07:35;;;;;;;43.22;25.10;;;;;;;2.21;83.96;102106.47;4954299;28;20417;-79
2022/01/17 04:10:00;;;;;;;53.88;28.27;;;;;;;2.24;84.27;102110.72;4953181;29;20421;-79
2022/01/17 04:12:25;;;;;;;41.50;23.73;;;;;;;2.20;84.48;102099.47;4955952;29;20398;-79
2022/01/17 04:14:55;;;;;;;48.73;28.23;;;;;;;2.21;84.59;102094.94;4955878;29;20465;-79
2022/01/17 04:17:26;;;;;;;49.78;29.00;;;;;;;2.25;83.99;102083.78;4955812;29;20435;-79
2022/01/17 04:19:58;;;;;;;46.23;27.00;;;;;;;2.33;83.88;102078.53;4955769;29;20405;-79
2022/01/17 04:22:24;;;;;;;37.87;24.40;;;;;;;2.39;83.14;102061.03;4938736;29;20798;-79
2022/01/17 04:24:49;;;;;;;39.37;24.60;;;;;;;2.30;83.65;102065.47;4937106;29;20417;-79
2022/01/17 04:27:14;;;;;;;38.60;24.60;;;;;;;2.27;84.08;102070.28;4955611;29;20898;-79
2022/01/17 04:29:40;;;;;;;38.27;24.97;;;;;;;2.29;84.11;102069.13;4955595;29;20402;-79
2022/01/17 04:32:06;;;;;;;38.28;24.40;;;;;;;2.29;83.77;102068.28;4955063;29;20417;-79
2022/01/17 04:34:32;;;;;;;40.13;25.33;;;;;;;2.24;83.91;102076.75;4938309;29;20409;-79
2022/01/17 04:36:58;;;;;;;40.45;25.23;;;;;;;2.22;84.36;102072.53;4955305;29;20476;-79
2022/01/17 04:39:23;;;;;;;38.77;24.77;;;;;;;2.28;83.95;102074.63;4952621;29;20402;-79
2022/01/17 04:41:49;;;;;;;35.83;23.03;;;;;;;2.29;83.68;102077.16;4955436;29;20426;-80
2022/01/17 04:46:58;;;;;;;40.63;25.83;;;;;;;2.26;83.94;102081.97;4955554;29;20477;-80
2022/01/17 04:49:24;;;;;;;38.37;25.03;;;;;;;2.24;84.27;102082.09;4954984;29;20878;-79
2022/01/17 04:51:53;;;;;;;42.17;25.87;;;;;;;2.32;83.23;102076.00;4955268;29;20494;-79
2022/01/17 04:54:40;;;;;;;42.60;26.42;;;;;;;2.32;83.43;102076.00;4953180;29;20441;-80
2022/01/17 04:57:07;;;;;;;41.40;27.17;;;;;;;2.27;83.66;102059.56;4935571;29;20464;-79
2022/01/17 04:59:32;;;;;;;47.00;28.80;;;;;;;2.27;83.62;102071.13;4918697;29;20414;-79
2022/01/17 05:01:57;;;;;;;44.63;27.97;;;;;;;2.23;83.65;102069.75;4935797;29;20502;-79
2022/01/17 05:04:23;;;;;;;42.17;27.03;;;;;;;2.20;83.66;102083.41;4935869;29;20395;-79
2022/01/17 05:06:48;;;;;;;43.10;27.30;;;;;;;2.14;83.54;102088.53;4931324;29;20424;-79
2022/01/17 05:09:13;;;;;;;40.07;26.80;;;;;;;2.20;83.46;102091.44;4934718;29;20443;-79
2022/01/17 05:11:40;;;;;;;42.20;27.90;;;;;;;2.21;83.44;102098.44;4918422;29;20447;-79
2022/01/17 05:14:05;;;;;;;45.63;27.90;;;;;;;2.24;83.08;102083.97;4935271;29;20411;-79
2022/01/17 05:16:38;;;;;;;45.23;27.47;;;;;;;2.26;83.05;102084.63;4935640;29;20902;-78
2022/01/17 05:21:47;;;;;;;42.50;27.00;;;;;;;2.25;83.17;102080.28;4932792;29;20552;-79
2022/01/17 05:24:13;;;;;;;40.57;26.40;;;;;;;2.25;82.93;102093.63;4917701;29;20788;-79
2022/01/17 05:26:38;;;;;;;45.60;28.30;;;;;;;2.22;82.99;102100.13;4934835;29;20488;-79
2022/01/17 05:29:03;;;;;;;42.60;28.50;;;;;;;2.27;82.92;102102.38;4918236;29;20412;-79
2022/01/17 05:31:29;;;;;;;47.30;29.73;;;;;;;2.28;82.99;102098.69;4935262;29;20459;-79
2022/01/17 05:33:55;;;;;;;44.77;29.13;;;;;;;2.24;82.62;102110.72;4935280;29;20400;-79
2022/01/17 05:36:20;;;;;;;41.22;25.83;;;;;;;2.21;82.95;102110.97;4931865;29;20903;-79
2022/01/17 05:38:46;;;;;;;41.43;25.60;;;;;;;2.29;83.07;102111.06;4934781;29;20403;-79
2022/01/17 05:41:11;;;;;;;40.47;26.17;;;;;;;2.29;82.94;102105.72;4917897;29;20424;-79
2022/01/17 05:43:36;;;;;;;41.73;25.83;;;;;;;2.31;82.84;102109.94;4927288;29;20430;-79
2022/01/17 05:46:02;;;;;;;42.65;27.08;;;;;;;2.34;82.92;102104.28;4918170;29;20766;-79
2022/01/17 05:48:27;;;;;;;40.20;25.67;;;;;;;2.34;82.56;102098.09;4934967;29;20396;-78
2022/01/17 05:50:53;;;;;;;41.40;26.20;;;;;;;2.36;82.65;102090.75;4934009;29;20419;-79
2022/01/17 05:53:18;;;;;;;42.03;27.17;;;;;;;2.36;82.70;102086.25;4934674;29;20415;-79
2022/01/17 05:55:44;;;;;;;40.40;25.87;;;;;;;2.38;82.62;102086.09;4944103;29;20894;-79
2022/01/17 05:58:11;;;;;;;45.65;29.08;;;;;;;2.33;82.68;102083.88;4954383;29;20413;-79
2022/01/17 06:00:36;;;;;;;47.10;29.75;;;;;;;2.25;82.29;102081.13;4953280;29;20418;-79
2022/01/17 06:03:02;;;;;;;45.77;29.93;;;;;;;2.32;82.52;102082.19;4953887;29;20777;-79
2022/01/17 06:05:27;;;;;;;45.30;28.37;;;;;;;2.26;82.12;102072.09;4948314;29;20429;-79
2022/01/17 06:07:52;;;;;;;43.73;28.13;;;;;;;2.22;82.45;102081.41;4952927;29;20428;-79
2022/01/17 06:10:18;;;;;;;41.42;27.25;;;;;;;2.28;82.23;102082.63;4952886;29;20437;-79
2022/01/17 06:12:43;;;;;;;44.23;29.63;;;;;;;2.26;82.30;102089.97;4953630;29;20481;-79
2022/01/17 06:15:09;;;;;;;43.03;29.80;;;;;;;2.27;81.62;102092.53;4953880;29;20406;-79
2022/01/17 06:17:34;;;;;;;48.17;30.00;;;;;;;2.28;81.69;102101.34;4950190;29;20605;-79
2022/01/17 06:19:59;;;;;;;45.50;29.57;;;;;;;2.21;82.03;102105.63;4953482;29;21011;-79
2022/01/17 06:22:25;;;;;;;44.90;29.88;;;;;;;2.13;82.52;102116.25;4953558;29;20406;-79
2022/01/17 06:24:51;;;;;;;48.95;30.83;;;;;;;2.17;82.44;102101.59;4937966;29;20408;-78
2022/01/17 06:27:17;;;;;;;48.22;30.60;;;;;;;2.13;82.63;102111.75;4935807;29;20406;-79
2022/01/17 06:29:42;;;;;;;50.55;32.92;;;;;;;2.20;82.25;102122.69;4953556;29;20437;-79
2022/01/17 06:32:07;;;;;;;46.92;29.92;;;;;;;2.18;82.51;102130.84;4950518;28;20402;-79
2022/01/17 06:34:33;;;;;;;50.67;31.60;;;;;;;2.23;82.60;102139.28;4952450;29;20414;-79
2022/01/17 06:36:58;;;;;;;50.47;31.63;;;;;;;2.31;81.94;102135.84;4951008;28;20896;-79
2022/01/17 06:39:24;;;;;;;48.57;30.93;;;;;;;2.39;81.49;102138.63;4953386;29;20878;-79
2022/01/17 06:41:50;;;;;;;47.60;30.63;;;;;;;2.32;81.80;102141.03;4953204;29;20513;-79
2022/01/17 06:44:16;;;;;;;48.58;31.73;;;;;;;2.28;81.73;102136.97;4929227;29;20751;-79
2022/01/17 06:46:41;;;;;;;48.83;30.33;;;;;;;2.34;81.74;102144.41;4951991;29;20464;-79
2022/01/17 06:49:07;;;;;;;46.22;29.42;;;;;;;2.28;81.98;102139.66;4952868;29;20867;-79
2022/01/17 06:51:32;;;;;;;50.17;30.30;;;;;;;2.33;81.83;102140.06;4935962;29;20409;-79
2022/01/17 06:53:57;;;;;;;47.90;29.37;;;;;;;2.29;81.85;102143.19;4935833;29;20409;-79
2022/01/17 06:56:23;;;;;;;44.90;28.90;;;;;;;2.29;82.28;102156.56;4950371;28;20822;-79
2022/01/17 06:58:48;;;;;;;47.92;29.80;;;;;;;2.28;81.71;102165.56;4953070;28;20397;-79
2022/01/17 07:01:14;;;;;;;45.60;29.50;;;;;;;2.33;81.66;102165.97;4953012;28;20425;-79
2022/01/17 07:03:40;;;;;;;43.88;28.55;;;;;;;2.33;81.23;102172.16;4943313;28;20514;-79
2022/01/17 07:06:06;;;;;;;43.67;28.70;;;;;;;2.36;80.99;102169.19;4952620;29;20874;-79
2022/01/17 07:08:31;;;;;;;48.20;29.87;;;;;;;2.37;80.84;102167.38;4952536;29;20889;-79
2022/01/17 07:10:56;;;;;;;44.57;29.33;;;;;;;2.33;80.61;102168.66;4953050;29;20401;-79
2022/01/17 07:13:22;;;;;;;44.22;30.45;;;;;;;2.37;80.77;102186.91;4950162;29;20405;-79
2022/01/17 07:15:47;;;;;;;44.50;29.20;;;;;;;2.31;81.22;102179.47;4946306;29;20497;-79
2022/01/17 07:18:13;;;;;;;48.50;30.50;;;;;;;2.31;81.32;102168.78;4948937;29;20473;-79
2022/01/17 07:20:39;;;;;;;45.20;29.87;;;;;;;2.28;81.50;102182.47;4945442;29;20424;-79
2022/01/17 07:23:04;;;;;;;47.40;30.95;;;;;;;2.24;81.79;102194.44;4950374;29;20421;-79
2022/01/17 07:25:30;;;;;;;48.38;30.17;;;;;;;2.28;81.74;102217.22;4952542;29;20970;-79
2022/01/17 07:27:57;;;;;;;48.78;31.33;;;;;;;2.33;81.27;102236.38;4950182;29;20421;-79
2022/01/17 07:30:23;;;;;;;49.42;30.70;;;;;;;2.39;80.71;102205.50;4943925;29;20883;-79
2022/01/17 07:32:48;;;;;;;48.40;30.15;;;;;;;2.43;80.37;102197.03;4952974;29;20402;-79
2022/01/17 07:35:13;;;;;;;48.37;30.00;;;;;;;2.31;80.90;102183.97;4949507;29;20422;-79
2022/01/17 07:37:39;;;;;;;49.07;30.30;;;;;;;2.34;81.06;102181.03;4952980;29;20413;-79
2022/01/17 07:40:06;;;;;;;46.60;30.53;;;;;;;2.29;81.36;102177.94;4949674;29;20417;-79
2022/01/17 07:42:31;;;;;;;47.38;30.65;;;;;;;2.33;81.57;102180.19;4945463;28;20423;-79
2022/01/17 07:44:58;;;;;;;48.90;30.33;;;;;;;2.41;81.59;102182.09;4944467;29;20904;-79
2022/01/17 07:47:39;;;;;;;49.35;31.60;;;;;;;2.45;81.46;102194.19;4949929;29;20406;-79
2022/01/17 07:50:10;;;;;;;45.90;30.10;;;;;;;2.48;81.41;102221.50;4952285;29;20472;-79
2022/01/17 07:52:36;;;;;;;49.42;31.70;;;;;;;2.49;81.04;102230.38;4951111;29;20410;-81
2022/01/17 07:55:02;;;;;;;48.75;31.20;;;;;;;2.51;80.75;102204.28;4951644;29;20430;-79
2022/01/17 07:57:27;;;;;;;50.97;31.98;;;;;;;2.45;80.82;102197.72;4955784;29;20456;-80
2022/01/17 07:59:52;;;;;;;46.55;30.15;;;;;;;2.40;81.08;102202.69;4955793;29;20460;-80
2022/01/17 08:02:18;;;;;;;49.17;30.47;;;;;;;2.48;80.99;102207.28;4955444;29;20406;-81
2022/01/17 08:04:43;;;;;;;51.27;31.53;;;;;;;2.44;80.90;102206.72;4950483;29;20421;-78
2022/01/17 08:07:08;;;;;;;50.60;30.77;;;;;;;2.50;80.67;102218.69;4954877;29;21100;-80
2022/01/17 08:09:35;;;;;;;54.23;32.33;;;;;;;2.44;80.80;102221.94;4953062;29;20414;-79
2022/01/17 08:12:02;;;;;;;51.10;30.80;;;;;;;2.42;81.30;102227.44;4938106;29;20920;-78
2022/01/17 08:14:28;;;;;;;48.40;31.08;;;;;;;2.44;80.85;102235.31;4955088;29;20437;-79
2022/01/17 08:16:54;;;;;;;51.37;33.03;;;;;;;2.39;81.24;102240.28;4954449;29;20414;-78
2022/01/17 08:19:23;;;;;;;51.07;33.50;;;;;;;2.40;81.36;102244.66;4950299;28;20433;-79
2022/01/17 08:21:51;;;;;;;53.65;33.92;;;;;;;2.51;81.70;102239.09;4952547;28;20432;-81
2022/01/17 08:24:17;;;;;;;52.33;32.65;;;;;;;2.56;81.01;102224.28;4947954;28;20493;-80
2022/01/17 08:26:43;;;;;;;53.72;33.28;;;;;;;2.51;81.05;102233.72;4952244;28;20536;-80
2022/01/17 08:29:10;;;;;;;53.67;32.65;;;;;;;2.59;80.94;102241.88;4949729;29;20413;-80
2022/01/17 08:31:36;;;;;;;52.53;33.38;;;;;;;2.61;80.86;102240.72;4950474;28;20921;-80
2022/01/17 08:34:02;;;;;;;53.95;33.10;;;;;;;2.49;81.54;102238.41;4958823;28;20456;-80
2022/01/17 08:36:27;;;;;;;52.13;32.30;;;;;;;2.61;81.21;102235.38;4937191;29;20406;-80
2022/01/17 08:38:53;;;;;;;53.33;34.03;;;;;;;2.66;80.78;102232.25;4942693;28;20428;-81
2022/01/17 08:41:19;;;;;;;58.75;36.97;;;;;;;2.49;81.75;102233.06;4958567;28;20429;-79
2022/01/17 08:43:45;;;;;;;51.47;33.37;;;;;;;2.60;81.68;102246.25;4952705;28;20786;-80
2022/01/17 08:46:10;;;;;;;53.35;32.95;;;;;;;2.58;81.88;102234.81;4947297;28;20626;-80
2022/01/17 08:48:35;;;;;;;52.57;34.13;;;;;;;2.62;81.80;102238.88;4954025;29;20406;-84
2022/01/17 08:51:01;;;;;;;52.33;35.00;;;;;;;2.49;82.46;102233.91;4937201;29;20472;-80
2022/01/17 08:53:26;;;;;;;53.40;33.63;;;;;;;2.54;82.20;102225.41;4953471;28;20417;-80
2022/01/17 08:55:52;;;;;;;53.50;34.22;;;;;;;2.61;82.09;102230.00;4953727;29;20430;-81
2022/01/17 08:58:17;;;;;;;51.33;32.95;;;;;;;2.74;81.13;102229.66;4956967;28;20424;-81
2022/01/17 09:00:43;;;;;;;52.07;34.20;;;;;;;2.62;81.91;102230.84;4957056;28;20504;-80
2022/01/17 09:03:09;;;;;;;49.78;33.03;;;;;;;2.66;82.06;102231.41;4962536;28;20409;-80
2022/01/17 09:05:34;;;;;;;52.00;31.90;;;;;;;2.53;82.96;102232.63;4954408;28;20953;-80
2022/01/17 09:08:01;;;;;;;49.22;32.05;;;;;;;2.63;82.89;102246.75;4950539;28;20410;-80
2022/01/17 09:10:27;;;;;;;48.15;30.85;;;;;;;2.71;82.68;102256.72;4952583;28;20662;-80
2022/01/17 09:12:53;;;;;;;47.95;31.40;;;;;;;2.73;81.89;102267.28;4950515;28;20560;-80
2022/01/17 09:15:19;;;;;;;47.43;30.77;;;;;;;2.61;82.68;102274.66;4950545;28;20448;-81
2022/01/17 09:17:44;;;;;;;46.55;30.38;;;;;;;2.61;82.86;102277.34;4936977;29;20406;-80
2022/01/17 09:20:10;;;;;;;48.63;30.50;;;;;;;2.70;82.93;102264.91;4951457;28;20413;-80
2022/01/17 09:22:36;;;;;;;46.47;29.55;;;;;;;2.67;82.61;102254.50;4927738;29;20881;-81
2022/01/17 09:25:05;;;;;;;48.67;29.48;;;;;;;2.75;82.70;102243.88;4944937;28;20414;-81
2022/01/17 09:27:31;;;;;;;42.92;29.70;;;;;;;2.91;81.92;102236.00;4950200;29;20785;-80
2022/01/17 09:29:56;;;;;;;47.50;28.87;;;;;;;3.04;81.45;102240.00;4956151;28;20408;-81
2022/01/17 09:32:21;;;;;;;45.00;29.70;;;;;;;3.29;80.69;102238.41;4957863;28;20409;-80
2022/01/17 09:34:47;;;;;;;46.53;30.45;;;;;;;3.34;80.66;102259.38;4948218;28;20861;-81
2022/01/17 09:37:13;;;;;;;45.08;30.10;;;;;;;3.30;80.94;102261.50;4948469;28;20420;-80
2022/01/17 09:39:39;;;;;;;45.25;28.90;;;;;;;3.22;81.68;102269.50;4933022;29;20418;-81
2022/01/17 09:42:06;;;;;;;43.03;28.87;;;;;;;3.37;81.63;102281.34;4950743;28;20889;-81
2022/01/17 09:44:32;;;;;;;43.58;29.10;;;;;;;3.42;81.32;102292.47;4964218;28;20419;-81
2022/01/17 09:47:05;;;;;;;46.75;29.75;;;;;;;3.22;82.33;102290.94;4956088;28;20503;-81
2022/01/17 09:49:36;;;;;;;44.20;29.67;;;;;;;3.10;82.38;102313.53;4947299;28;20420;-81
2022/01/17 09:52:15;;;;;;;47.60;30.50;;;;;;;2.93;83.14;102301.81;4953290;28;20403;-81
2022/01/17 09:54:44;;;;;;;44.55;29.13;;;;;;;2.91;83.50;102317.19;4953847;28;20516;-82
2022/01/17 09:57:11;;;;;;;43.10;28.45;;;;;;;2.90;83.65;102325.38;4951073;28;20416;-81
2022/01/17 09:59:38;;;;;;;44.80;30.17;;;;;;;2.74;84.55;102304.59;4960096;28;20895;-81
2022/01/17 10:02:05;;;;;;;48.92;31.00;;;;;;;2.95;83.82;102289.13;4959596;28;20437;-81
2022/01/17 10:04:32;;;;;;;49.65;30.05;;;;;;;2.93;84.00;102312.53;4952333;28;20913;-82
2022/01/17 10:06:59;;;;;;;46.57;29.47;;;;;;;2.95;83.79;102299.84;4951850;28;20413;-81
2022/01/17 10:09:28;;;;;;;43.67;28.20;;;;;;;3.04;83.81;102298.09;4952301;28;20445;-80
2022/01/17 10:12:13;;;;;;;46.88;28.55;;;;;;;3.30;82.97;102293.66;4946218;29;20425;-80
2022/01/17 10:14:57;;;;;;;49.83;30.00;;;;;;;3.40;82.20;102290.91;4953725;29;20492;-80
2022/01/17 10:17:40;;;;;;;47.13;29.77;;;;;;;3.59;81.69;102288.91;4946847;28;20438;-82
2022/01/17 10:20:07;;;;;;;46.47;30.27;;;;;;;3.66;81.02;102314.09;4943621;28;20427;-79
2022/01/17 10:22:43;;;;;;;49.65;31.05;;;;;;;3.64;81.04;102307.22;4934216;29;20890;-80
2022/01/17 10:25:49;;;;;;;48.42;30.52;;;;;;;3.61;81.45;102300.34;4942774;29;20442;-81
2022/01/17 10:28:46;;;;;;;48.88;31.13;;;;;;;3.54;81.50;102309.97;4950730;29;20457;-80
2022/01/17 10:36:47;;;;;;;44.60;30.50;;;;;;;3.27;82.01;102319.91;4947033;28;20554;-80
2022/01/17 10:39:12;;;;;;;45.45;30.15;;;;;;;3.15;83.31;102324.66;4942620;29;20421;-81
2022/01/17 10:41:38;;;;;;;45.67;30.77;;;;;;;3.24;82.76;102323.75;4952402;28;20434;-80
2022/01/17 10:44:05;;;;;;;47.58;29.27;;;;;;;3.12;83.57;102322.28;4951985;28;20751;-81
2022/01/17 10:46:30;;;;;;;45.30;28.67;;;;;;;3.07;83.64;102324.56;4946923;29;20417;-80
2022/01/17 10:48:57;;;;;;;45.80;29.10;;;;;;;3.03;84.04;102328.56;4948957;29;20911;-81
2022/01/17 10:51:35;;;;;;;47.65;28.02;;;;;;;3.11;84.05;102337.53;4949002;29;20430;-81
2022/01/17 10:54:15;;;;;;;43.28;28.13;;;;;;;3.19;83.48;102343.97;4950569;29;20497;-82
2022/01/17 10:56:53;;;;;;;46.20;28.63;;;;;;;3.27;83.42;102346.72;4952401;29;20422;-81
2022/01/17 10:59:26;;;;;;;48.22;30.55;;;;;;;3.37;82.74;102351.03;4953047;28;20413;-81
2022/01/17 11:01:54;;;;;;;46.35;29.35;;;;;;;3.46;82.48;102347.41;4949267;29;20780;-81
2022/01/17 11:04:33;;;;;;;46.85;29.08;;;;;;;3.49;82.36;102352.47;4952609;29;20889;-80
2022/01/17 11:07:05;;;;;;;47.05;28.95;;;;;;;3.39;82.64;102354.38;4932587;29;20405;-81
2022/01/17 11:09:40;;;;;;;45.63;30.42;;;;;;;3.44;82.93;102356.63;4949203;29;20489;-81
2022/01/17 11:12:11;;;;;;;55.63;32.28;;;;;;;3.42;82.70;102362.16;4947248;28;20417;-84
2022/01/17 11:14:37;;;;;;;47.35;30.23;;;;;;;3.24;83.47;102355.06;4956712;28;20408;-84
2022/01/17 11:17:21;;;;;;;47.53;30.70;;;;;;;3.31;83.54;102351.63;4953776;28;20409;-83
2022/01/17 11:22:28;;;;;;;45.63;31.13;;;;;;;3.21;83.87;102360.72;4963336;28;20425;-83
2022/01/17 11:24:55;;;;;;;49.60;30.27;;;;;;;3.30;83.54;102357.97;4956401;28;20416;-82
2022/01/17 11:27:20;;;;;;;46.90;30.65;;;;;;;3.22;84.34;102375.81;4961374;28;20932;-83
2022/01/17 11:29:48;;;;;;;46.00;30.23;;;;;;;3.39;83.39;102361.59;4942241;28;20421;-82
2022/01/17 11:32:13;;;;;;;48.50;30.55;;;;;;;3.40;83.58;102355.22;4950426;28;20437;-82
2022/01/17 11:34:39;;;;;;;50.70;31.50;;;;;;;3.47;83.26;102358.97;4938725;29;20897;-83
2022/01/17 11:37:04;;;;;;;49.80;31.77;;;;;;;3.51;83.21;102347.81;4939585;29;20447;-82
2022/01/17 11:39:30;;;;;;;48.65;30.50;;;;;;;3.54;82.73;102346.66;4956320;29;20896;-82
2022/01/17 11:41:55;;;;;;;46.22;28.70;;;;;;;3.49;83.22;102339.06;4935013;28;20432;-83